Aérodrome :
LOGIN :

S'inscrire | Disclaimer

   EN    FR    IT 

 










Légende :    VFR   VFR Marginal   IFR   IFR Intensif   IFR Très Intensif
Visi : 
Plafond : 
>= 8 km
>= 3000ft
5 à 8 km
1000 à 3000 ft
1500m à 5 km
500 à 1000 ft
800 à 1500m
200 à 500 ft
< 800m
< 200 ft
Symboles :   Orages  Brouillard  Fortes neiges  Fortes précipitations  Vent > 20 kt
SIGMETs :   Divers  Orages  Givrage  Turbulence  Onde Orograph.  Cendres Volcan.






- Altitude de l'aérodrome : 74 ft
- Code IATA : LRH


LFBH - La Rochelle Ile de Ré

DERNIER METAR :
  • 290330Z AUTO 04011KT CAVOK 08/04 Q1022

METARs EXPIRÉS :
  • 290300Z AUTO 05014KT 9000 FEW048 SCT054 BKN070 08/04 Q1022
  • 290230Z AUTO 03013KT 7000 BKN045 OVC068 09/05 Q1022
  • 290200Z AUTO 02010KT 5000 BR OVC046 09/06 Q1021
  • 290130Z AUTO 02009KT 4900 BR OVC044 08/06 Q1021
  • 290100Z AUTO 02009KT 5000 BR BKN047 OVC062 09/06 Q1021

Prévision TAF périmée.
ATIS : +33 5 46 00 13 92



MET'MAP, la Météo Aéronautique d'un coup d'oeil ! - Copyright ORBIFLY Décembre 2007 - Disclaimer

ORBIFLY MET'MAP TEAM :

Programmation & Développement : Alexandra Zaïnal
Sur une idée originale de : Baudouin d'Aumeries
Assistance à la programmation : Marc-Olivier Méhu
Soutien technique & logistique : Manuel Goepfert

Contact : metmap@orbifly.com




SOURCES & CREDITS :

   NOAA